Carnegie, OK (73015)

4:36 PM CDT on October 01, 2014 (GMT -0500)
Carnegie | Change Station
CLOSE
Current Station
Personal Weather Station
Location: Carnegie, OK
Elevation: 1358 ft
Nearby Weather Stations

Elev 1358 ft 35.14 °N, 98.60 °W | Updated 2 seconds ago

Clear
Clear
96.6 °F
Feels Like 92 °F
N
18.8
Wind Variable Wind from SW
Gusts 18.8 mph

Today
High -- | Low -- °F
--% Chance of Precip.
Yesterday
High -- | Low -- °F
Precip. -- in
7:29 AM 7:18 PM
Waxing Crescent, 51% visible
Pressure 29.68 in
Visibility 10.0 miles
Clouds Scattered Clouds 12000 ft
Heat Index 92 °F
Dew Point 44 °F
Humidity 16%
Rainfall -999.00 in
Snow Depth Not available.
UV 4 out of 12
Pollen 9.60 out of 12
Air Quality Not available.
Flu Activity Not available.
METAR KHBR 302053Z AUTO 19017G28KT 10SM SCT120 32/13 A2974 RMK AO2 PK WND 19028/2017 SLP051 T03170133 56031

More Conditions Fewer Conditions

Pressure 29.68 in
Visibility 10.0 miles
Clouds Scattered Clouds 12000 ft
Heat Index 92 °F
Dew Point 44 °F
Humidity 16%
Rainfall -999.00 in
Snow Depth Not available.
UV 4 out of 12
Pollen 9.60 out of 12
Air Quality Not available.
Flu Activity Not available.
METAR KHBR 302053Z AUTO 19017G28KT 10SM SCT120 32/13 A2974 RMK AO2 PK WND 19028/2017 SLP051 T03170133 56031

More Conditions Fewer Conditions

10-Day Weather Forecast

Almanac

Astronomy

Oct. 01, 2014 Rise Set
Actual Time 7:29 AM CDT 7:18 PM CDT
Civil Twilight 7:03 AM CDT 7:43 PM CDT
Nautical Twilight 6:34 AM CDT 8:12 PM CDT
Astronomical Twilight 6:05 AM CDT 8:42 PM CDT
Moon 2:21 PM CDT 12:01 AM CDT
Length of Visible Light 12h 39m
Length of Day
11h 49m
Tomorrow will be 2m 11s shorter.
Waxing Crescent, 51% of the Moon is Illuminated
Today
Waxing Crescent
Oct 8
Full
Oct 15
Last Quarter
Oct 23
New
Oct 30
First Quarter

Today's Extremes

State Highs State Lows

Community

WunderPhotos

Upload Photos

1,758,058 photos uploaded!

WunderBlogs® & News

By Dr. Jeff Masters
Director of Meteorology, Weather Underground
By Kari Strenfel
Meteorologist, Weather Underground
By Christopher C. Burt
Weather Historian, Weather Underground
October 1, 2014
October 1, 2014
October 1, 2014

Nearby

Snow Depth

Station Depth Elevation
No new snow has been reported.

Earthquake Activity

City Distance Mag. Time & Date
Medford, Oklahoma 127 miles 2.5 10:49 PM CDT
2014-09-30
Medford, Oklahoma 126 miles 2.8 8:30 PM CDT
2014-09-30
Spencer, Oklahoma 75 miles 3.0 5:12 PM CDT
2014-09-30
Perry, Oklahoma 106 miles 2.6 2:34 PM CDT
2014-09-30
Minimum magnitude displayed is 2.5.

Coastal Water Temperatures

Place Temperature
No Stations Reporting

Nearby Weather Stations